Time;durP1;ratioP1;P1;durP2;ratioP2;P2;SDS_P1;SDS_P2;PMS_P1;PMS_P2;Temp;Humidity;BMP_temperature;BMP_pressure;BME280_temperature;BME280_humidity;BME280_pressure;Samples;Min_cycle;Max_cycle;Signal;HPM_P1;HPM_P2
2023/11/04 00:00:15;;;;;;;1.63;0.88;;;9.90;99.90;;;;;;4118289;28;20226;-89
2023/11/04 00:02:16;;;;;;;0.85;0.57;;;9.90;99.90;;;;;;4102325;29;20179;-91
2023/11/04 00:04:17;;;;;;;1.17;0.40;;;9.90;99.90;;;;;;4118418;28;20567;-89
2023/11/04 00:06:18;;;;;;;1.30;0.63;;;9.90;99.90;;;;;;4102484;29;20183;-90
2023/11/04 00:08:19;;;;;;;1.42;0.70;;;9.90;99.90;;;;;;4102507;29;20187;-89
2023/11/04 00:10:21;;;;;;;0.90;0.52;;;9.80;99.90;;;;;;4102459;29;20210;-90
2023/11/04 00:12:22;;;;;;;0.73;0.60;;;9.80;99.90;;;;;;4102439;29;20195;-90
2023/11/04 00:14:23;;;;;;;1.77;1.13;;;9.80;99.90;;;;;;4101988;29;20175;-90
2023/11/04 00:16:24;;;;;;;3.55;1.23;;;9.80;99.90;;;;;;4102335;29;20186;-89
2023/11/04 00:18:27;;;;;;;2.67;0.90;;;9.80;99.90;;;;;;4117768;28;20178;-90
2023/11/04 00:20:27;;;;;;;5.68;0.90;;;9.80;99.90;;;;;;4102001;28;20241;-89
2023/11/04 00:22:29;;;;;;;1.02;0.95;;;9.80;99.90;;;;;;4102013;29;20179;-90
2023/11/04 00:24:30;;;;;;;0.47;0.38;;;9.80;99.90;;;;;;4102076;29;20206;-89
2023/11/04 00:26:31;;;;;;;1.05;0.80;;;9.80;99.90;;;;;;4101867;28;20175;-91
2023/11/04 00:28:33;;;;;;;1.38;0.80;;;9.80;99.90;;;;;;4102022;28;20191;-89
2023/11/04 00:30:33;;;;;;;0.52;0.52;;;9.90;99.90;;;;;;4102038;29;20187;-90
2023/11/04 00:32:34;;;;;;;0.95;0.45;;;9.80;99.90;;;;;;4102124;28;20220;-90
2023/11/04 00:34:35;;;;;;;1.55;0.60;;;9.90;99.90;;;;;;4117910;28;20185;-91
2023/11/04 00:36:36;;;;;;;0.40;0.40;;;9.90;99.90;;;;;;4101879;29;20188;-91
2023/11/04 00:38:37;;;;;;;1.30;0.73;;;9.90;99.90;;;;;;4101847;28;20179;-89
2023/11/04 00:40:38;;;;;;;1.50;0.65;;;9.90;99.90;;;;;;4101336;28;20219;-90
2023/11/04 00:42:38;;;;;;;3.92;0.70;;;9.90;99.90;;;;;;4101601;29;20202;-90
2023/11/04 00:44:39;;;;;;;4.93;1.17;;;9.90;99.90;;;;;;4101509;29;20183;-88
2023/11/04 00:46:40;;;;;;;1.20;0.65;;;9.90;99.90;;;;;;4117350;28;20536;-90
2023/11/04 00:48:41;;;;;;;1.13;0.73;;;9.80;99.90;;;;;;4101456;29;20238;-91
2023/11/04 00:50:41;;;;;;;3.58;0.98;;;9.80;99.90;;;;;;4117068;28;20201;-91
2023/11/04 00:52:42;;;;;;;1.83;0.40;;;9.90;99.90;;;;;;4101548;29;20183;-91
2023/11/04 00:54:43;;;;;;;0.68;0.55;;;9.90;99.90;;;;;;4101383;29;20178;-91
2023/11/04 00:56:44;;;;;;;2.10;1.17;;;9.90;99.90;;;;;;4101540;29;20191;-91
2023/11/04 00:58:45;;;;;;;4.18;1.42;;;9.80;99.90;;;;;;4101558;29;20621;-92
2023/11/04 01:00:46;;;;;;;0.47;0.40;;;9.70;99.90;;;;;;4101447;29;20222;-90
2023/11/04 01:02:47;;;;;;;1.77;0.73;;;9.70;99.90;;;;;;4101288;29;20171;-91
2023/11/04 01:04:48;;;;;;;1.00;0.55;;;9.70;99.90;;;;;;4101243;29;20194;-91
2023/11/04 01:06:48;;;;;;;2.38;0.82;;;9.70;99.90;;;;;;4117342;28;20635;-91
2023/11/04 01:08:49;;;;;;;0.90;0.63;;;9.70;99.90;;;;;;4101263;29;20186;-90
2023/11/04 01:10:50;;;;;;;0.93;0.60;;;9.70;99.90;;;;;;4101404;29;20679;-91
2023/11/04 01:12:51;;;;;;;3.90;0.90;;;9.70;99.90;;;;;;4101387;29;20270;-91
2023/11/04 01:14:52;;;;;;;0.82;0.70;;;9.60;99.90;;;;;;4101038;28;20639;-91
2023/11/04 01:16:53;;;;;;;0.60;0.50;;;9.60;99.90;;;;;;4101310;28;20226;-91
2023/11/04 01:18:53;;;;;;;1.92;0.90;;;9.60;99.90;;;;;;4100999;29;20647;-91
2023/11/04 01:20:54;;;;;;;3.05;1.17;;;9.60;99.90;;;;;;4101058;29;20198;-91
2023/11/04 01:22:55;;;;;;;0.90;0.63;;;9.70;99.90;;;;;;4101156;29;20186;-91
2023/11/04 01:24:56;;;;;;;1.25;0.68;;;9.60;99.90;;;;;;4101305;29;20191;-91
2023/11/04 01:26:57;;;;;;;5.22;1.10;;;9.70;99.90;;;;;;4101095;29;20179;-91
2023/11/04 01:28:58;;;;;;;2.03;1.05;;;9.70;99.90;;;;;;4100899;28;20653;-91
2023/11/04 01:30:59;;;;;;;2.22;1.00;;;9.70;99.90;;;;;;4100461;28;20262;-91
2023/11/04 01:33:01;;;;;;;3.55;0.82;;;9.80;99.90;;;;;;4101225;29;20654;-92
2023/11/04 01:35:02;;;;;;;2.33;0.63;;;9.80;99.90;;;;;;4101104;29;20209;-91
2023/11/04 01:37:03;;;;;;;0.40;0.38;;;9.90;99.90;;;;;;4101219;28;20687;-91
2023/11/04 01:39:05;;;;;;;5.78;0.60;;;9.80;99.90;;;;;;4100784;28;20294;-90
2023/11/04 01:41:06;;;;;;;3.20;0.73;;;9.80;99.90;;;;;;4100812;29;20199;-90
2023/11/04 01:43:08;;;;;;;2.63;1.23;;;9.90;99.90;;;;;;4093068;29;20175;-91
2023/11/04 01:45:09;;;;;;;1.02;0.77;;;9.90;99.90;;;;;;4100634;29;20194;-89
2023/11/04 01:47:12;;;;;;;0.40;0.30;;;9.80;99.90;;;;;;4100738;29;20181;-92
2023/11/04 01:49:13;;;;;;;2.78;0.63;;;9.90;99.90;;;;;;4100614;29;20284;-90
2023/11/04 01:51:15;;;;;;;0.88;0.52;;;10.00;99.90;;;;;;4116641;28;20185;-92
2023/11/04 01:53:16;;;;;;;1.33;0.60;;;9.90;99.90;;;;;;4100814;29;20183;-90
2023/11/04 01:55:16;;;;;;;0.95;0.55;;;9.80;99.90;;;;;;4100746;29;20250;-90
2023/11/04 01:57:17;;;;;;;0.52;0.52;;;9.90;99.90;;;;;;4100596;29;20364;-90
2023/11/04 01:59:19;;;;;;;2.70;0.80;;;9.90;99.90;;;;;;4100454;29;20219;-90
2023/11/04 02:01:20;;;;;;;1.52;0.68;;;9.90;99.90;;;;;;4116609;28;20245;-90
2023/11/04 02:03:21;;;;;;;1.20;0.65;;;9.90;99.90;;;;;;4100567;28;20609;-91
2023/11/04 02:05:22;;;;;;;1.23;0.63;;;9.90;99.90;;;;;;4100650;29;20230;-91
2023/11/04 02:07:25;;;;;;;0.50;0.38;;;9.90;99.90;;;;;;4100540;29;20175;-89
2023/11/04 02:09:27;;;;;;;3.03;1.10;;;9.90;99.90;;;;;;4100190;29;20278;-90
2023/11/04 02:11:28;;;;;;;3.95;0.57;;;9.80;99.90;;;;;;4100466;29;20191;-92
2023/11/04 02:13:31;;;;;;;1.63;0.75;;;9.80;99.90;;;;;;4100501;28;20185;-90
2023/11/04 02:15:32;;;;;;;2.53;0.60;;;9.80;99.90;;;;;;4116361;28;20256;-90
2023/11/04 02:17:32;;;;;;;1.33;0.65;;;9.80;99.90;;;;;;4100448;29;20186;-91
2023/11/04 02:19:33;;;;;;;1.95;0.60;;;9.80;99.90;;;;;;4100088;29;20611;-90
2023/11/04 02:21:34;;;;;;;1.92;0.55;;;9.80;99.90;;;;;;4116258;28;20178;-92
2023/11/04 02:23:35;;;;;;;2.72;0.88;;;9.80;99.90;;;;;;4100284;29;20183;-90
2023/11/04 02:25:36;;;;;;;2.92;0.60;;;9.90;99.90;;;;;;4100313;29;20226;-90
2023/11/04 02:27:36;;;;;;;1.75;0.80;;;9.90;99.90;;;;;;4100099;28;20199;-91
2023/11/04 02:29:38;;;;;;;1.98;0.98;;;10.00;99.90;;;;;;4100074;29;20206;-91
2023/11/04 02:31:39;;;;;;;4.68;0.85;;;9.90;99.90;;;;;;4100346;29;20175;-91
2023/11/04 02:33:41;;;;;;;5.57;1.10;;;10.00;99.90;;;;;;4100341;29;20194;-90
2023/11/04 02:35:42;;;;;;;2.40;0.80;;;10.00;99.90;;;;;;4100276;29;20187;-91
2023/11/04 02:37:44;;;;;;;3.90;0.57;;;9.90;99.90;;;;;;4100217;29;20718;-90
2023/11/04 02:39:45;;;;;;;1.33;0.90;;;9.90;99.90;;;;;;4099895;29;20245;-90
2023/11/04 02:41:46;;;;;;;4.00;0.65;;;9.90;99.90;;;;;;4100168;29;20175;-90
2023/11/04 02:43:46;;;;;;;1.90;0.60;;;9.80;99.90;;;;;;4099976;29;20182;-90
2023/11/04 02:45:48;;;;;;;0.35;0.30;;;9.80;99.90;;;;;;4100166;29;20238;-91
2023/11/04 02:47:48;;;;;;;4.28;1.30;;;9.80;99.90;;;;;;4100194;29;20270;-90
2023/11/04 02:49:49;;;;;;;3.97;0.85;;;9.80;99.90;;;;;;4100078;29;20221;-90
2023/11/04 02:51:50;;;;;;;3.55;0.70;;;9.80;99.90;;;;;;4100246;29;20304;-91
2023/11/04 02:53:51;;;;;;;2.80;0.55;;;9.70;99.90;;;;;;4100288;29;20204;-94
2023/11/04 02:55:52;;;;;;;1.30;0.52;;;9.70;99.90;;;;;;4116096;28;20678;-91
2023/11/04 02:57:53;;;;;;;1.45;0.50;;;9.70;99.90;;;;;;4100301;29;20190;-90
2023/11/04 02:59:53;;;;;;;2.03;0.50;;;9.70;99.90;;;;;;4099885;29;20218;-91
2023/11/04 03:01:54;;;;;;;0.38;0.38;;;9.70;99.90;;;;;;4116062;28;20190;-91
2023/11/04 03:03:55;;;;;;;5.32;1.08;;;9.70;99.90;;;;;;4100094;29;20183;-90
2023/11/04 03:05:56;;;;;;;4.40;1.35;;;9.80;99.90;;;;;;4099878;29;20273;-90
2023/11/04 03:07:56;;;;;;;1.30;0.65;;;9.70;99.90;;;;;;4099841;28;20210;-91
2023/11/04 03:09:57;;;;;;;1.27;0.55;;;9.70;99.90;;;;;;4099777;29;20194;-90
2023/11/04 03:11:58;;;;;;;4.85;0.98;;;9.70;99.90;;;;;;4099715;28;20183;-92
2023/11/04 03:13:59;;;;;;;1.40;0.52;;;9.70;99.90;;;;;;4099734;28;20647;-91
2023/11/04 03:16:00;;;;;;;1.27;0.50;;;9.60;99.90;;;;;;4099709;29;20278;-89
2023/11/04 03:18:02;;;;;;;1.92;0.38;;;9.60;99.90;;;;;;4099734;29;20191;-91
2023/11/04 03:20:03;;;;;;;3.28;1.05;;;9.70;99.90;;;;;;4115483;28;20226;-91
2023/11/04 03:22:04;;;;;;;0.40;0.30;;;9.70;99.90;;;;;;4099894;29;20257;-90
2023/11/04 03:24:05;;;;;;;0.85;0.52;;;9.70;99.90;;;;;;4115574;28;20186;-91
2023/11/04 03:26:09;;;;;;;5.43;1.17;;;9.60;99.90;;;;;;4099952;29;20183;-90
2023/11/04 03:28:09;;;;;;;5.20;1.38;;;9.60;99.90;;;;;;4099861;29;20232;-90
2023/11/04 03:30:11;;;;;;;0.70;0.40;;;9.60;99.90;;;;;;4099716;29;20233;-91
2023/11/04 03:32:12;;;;;;;0.60;0.47;;;9.60;99.90;;;;;;4099861;29;20183;-91
2023/11/04 03:34:13;;;;;;;0.65;0.30;;;9.60;99.90;;;;;;4115710;28;20273;-90
2023/11/04 03:36:13;;;;;;;1.67;1.20;;;9.60;99.90;;;;;;4115402;28;20647;-90
2023/11/04 03:38:14;;;;;;;2.00;0.80;;;9.60;99.90;;;;;;4099509;29;20217;-90
2023/11/04 03:40:16;;;;;;;1.45;0.63;;;9.60;99.90;;;;;;4099394;29;20211;-91
2023/11/04 03:42:16;;;;;;;2.03;0.75;;;9.60;99.90;;;;;;4099584;29;20352;-90
2023/11/04 03:44:17;;;;;;;1.23;0.60;;;9.60;99.90;;;;;;4099529;28;20232;-91
2023/11/04 03:46:19;;;;;;;3.65;1.40;;;9.50;99.90;;;;;;4099667;29;20187;-92
2023/11/04 03:48:19;;;;;;;6.53;0.70;;;9.50;99.90;;;;;;4099469;29;20197;-90
2023/11/04 03:50:20;;;;;;;2.85;1.30;;;9.50;99.90;;;;;;4099504;29;20214;-91
2023/11/04 03:52:21;;;;;;;4.13;1.45;;;9.60;99.90;;;;;;4099590;29;20216;-92
2023/11/04 03:54:21;;;;;;;4.10;0.52;;;9.60;99.90;;;;;;4101088;28;20245;-91
2023/11/04 03:56:23;;;;;;;2.72;0.63;;;9.60;99.90;;;;;;4102385;29;20245;-90
2023/11/04 03:58:23;;;;;;;0.40;0.40;;;9.60;99.90;;;;;;4102519;28;20338;-89
2023/11/04 04:00:24;;;;;;;2.72;0.90;;;9.50;99.90;;;;;;4102155;29;20678;-90
2023/11/04 04:02:25;;;;;;;3.58;0.90;;;9.50;99.90;;;;;;4102503;29;20186;-90
2023/11/04 04:04:25;;;;;;;4.70;0.70;;;9.60;99.90;;;;;;4102278;29;20182;-91
2023/11/04 04:06:26;;;;;;;0.57;0.35;;;9.60;99.90;;;;;;4102429;29;20227;-89
2023/11/04 04:08:27;;;;;;;0.25;0.25;;;9.60;99.90;;;;;;4102460;29;20631;-90
2023/11/04 04:10:28;;;;;;;1.00;0.50;;;9.50;99.90;;;;;;4102271;29;20266;-90
2023/11/04 04:12:28;;;;;;;1.98;0.40;;;9.50;99.90;;;;;;4102287;29;20178;-90
2023/11/04 04:14:29;;;;;;;4.57;1.13;;;9.50;99.90;;;;;;4102187;29;20194;-91
2023/11/04 04:16:30;;;;;;;1.20;0.40;;;9.50;99.90;;;;;;4102459;28;20265;-91
2023/11/04 04:18:31;;;;;;;1.25;0.50;;;9.40;99.90;;;;;;4102227;29;20247;-90
2023/11/04 04:20:31;;;;;;;5.95;0.43;;;9.20;99.90;;;;;;4101932;29;20383;-90
2023/11/04 04:22:32;;;;;;;5.38;1.05;;;9.10;99.90;;;;;;4102150;29;20714;-90
2023/11/04 04:24:33;;;;;;;1.02;0.70;;;9.10;99.90;;;;;;4102124;29;20190;-90
2023/11/04 04:26:34;;;;;;;3.25;0.65;;;8.90;99.90;;;;;;4102019;29;20612;-91
2023/11/04 04:28:37;;;;;;;2.07;0.43;;;8.90;99.90;;;;;;4117968;28;20182;-91
2023/11/04 04:30:38;;;;;;;0.35;0.22;;;8.90;99.90;;;;;;4101998;29;20234;-91
2023/11/04 04:32:39;;;;;;;3.25;0.28;;;8.90;99.90;;;;;;4117918;28;20182;-91
2023/11/04 04:34:40;;;;;;;8.30;1.20;;;8.90;99.90;;;;;;4101830;29;20186;-90
2023/11/04 04:36:40;;;;;;;0.90;0.73;;;8.90;99.90;;;;;;4101824;28;20183;-91
2023/11/04 04:38:41;;;;;;;1.67;0.93;;;8.90;99.90;;;;;;4117781;28;20231;-91
2023/11/04 04:40:42;;;;;;;3.95;0.60;;;8.80;99.90;;;;;;4101744;29;20301;-91
2023/11/04 04:42:43;;;;;;;2.55;0.52;;;8.90;99.90;;;;;;4117637;28;20190;-90
2023/11/04 04:44:44;;;;;;;3.40;0.65;;;8.80;99.90;;;;;;4101871;29;20225;-89
2023/11/04 04:46:45;;;;;;;0.73;0.30;;;8.70;99.90;;;;;;4101951;29;20187;-90
2023/11/04 04:48:45;;;;;;;1.58;0.08;;;8.70;99.90;;;;;;4102491;29;20246;-91
2023/11/04 04:50:46;;;;;;;4.45;0.98;;;8.70;99.90;;;;;;4101576;29;20202;-89
2023/11/04 04:52:47;;;;;;;7.17;0.90;;;8.80;99.90;;;;;;4101511;29;20317;-91
2023/11/04 04:54:48;;;;;;;2.50;0.80;;;8.90;99.90;;;;;;4101703;29;20218;-91
2023/11/04 04:56:49;;;;;;;8.10;1.42;;;8.90;99.90;;;;;;4101670;28;20175;-91
2023/11/04 04:58:50;;;;;;;1.55;0.40;;;8.80;99.90;;;;;;4101438;29;20258;-90
2023/11/04 05:00:50;;;;;;;3.05;1.23;;;8.90;99.90;;;;;;4101442;29;20218;-91
2023/11/04 05:02:51;;;;;;;3.17;0.65;;;8.90;99.90;;;;;;4117285;28;20678;-91
2023/11/04 05:04:52;;;;;;;2.80;1.05;;;8.90;99.90;;;;;;4100521;28;20631;-91
2023/11/04 05:06:52;;;;;;;5.55;0.77;;;9.00;99.90;;;;;;4101040;29;20279;-90
2023/11/04 05:08:55;;;;;;;2.60;0.70;;;9.00;99.90;;;;;;4101290;28;20325;-90
2023/11/04 05:10:56;;;;;;;2.17;0.70;;;8.90;99.90;;;;;;4117324;28;20189;-91
2023/11/04 05:12:56;;;;;;;1.48;0.60;;;8.80;99.90;;;;;;4101188;28;20210;-90
2023/11/04 05:14:57;;;;;;;0.65;0.52;;;8.70;99.90;;;;;;4101282;29;20822;-90
2023/11/04 05:16:58;;;;;;;0.77;0.68;;;8.80;99.90;;;;;;4101229;28;20183;-90
2023/11/04 05:18:59;;;;;;;1.67;0.45;;;8.70;99.90;;;;;;4101144;28;20199;-90
2023/11/04 05:21:02;;;;;;;1.50;0.83;;;8.70;99.90;;;;;;4101094;29;20218;-90
2023/11/04 05:23:03;;;;;;;1.13;1.00;;;8.70;99.90;;;;;;4101292;29;20193;-90
2023/11/04 05:25:04;;;;;;;1.30;0.43;;;8.70;99.90;;;;;;4116986;28;20170;-90
2023/11/04 05:27:05;;;;;;;2.03;0.90;;;8.80;99.90;;;;;;4101335;29;20187;-89
2023/11/04 05:29:06;;;;;;;0.30;0.20;;;8.70;99.90;;;;;;4117019;28;20198;-91
2023/11/04 05:31:08;;;;;;;2.42;0.60;;;8.70;99.90;;;;;;4101169;29;20194;-92
2023/11/04 05:33:09;;;;;;;1.02;0.55;;;8.80;99.90;;;;;;4117172;28;20179;-90
2023/11/04 05:35:10;;;;;;;7.57;0.80;;;8.80;99.90;;;;;;4101087;29;20211;-91
2023/11/04 05:37:11;;;;;;;1.88;0.55;;;8.70;99.90;;;;;;4101088;28;20234;-91
2023/11/04 05:39:12;;;;;;;1.03;0.53;;;8.70;99.90;;;;;;4100723;29;20621;-90
2023/11/04 05:41:12;;;;;;;3.25;0.75;;;8.70;99.90;;;;;;4100744;28;20199;-91
2023/11/04 05:43:13;;;;;;;0.80;0.35;;;8.60;99.90;;;;;;4116974;28;20186;-90
2023/11/04 05:45:14;;;;;;;2.08;0.85;;;8.60;99.90;;;;;;4100843;29;20620;-90
2023/11/04 05:47:16;;;;;;;2.67;0.50;;;8.70;99.90;;;;;;4100889;29;20274;-90
2023/11/04 05:49:16;;;;;;;6.95;1.38;;;8.70;99.90;;;;;;4115755;23;20235;-93
2023/11/04 05:51:26;;;;;;;5.47;1.10;;;8.70;99.90;;;;;;4117305;28;20292;-95
2023/11/04 05:53:29;;;;;;;4.50;1.05;;;8.60;99.90;;;;;;4101663;28;20177;-94
2023/11/04 05:55:30;;;;;;;3.92;1.27;;;8.60;99.90;;;;;;4101437;29;20250;-93
2023/11/04 05:57:33;;;;;;;6.25;0.93;;;8.70;99.90;;;;;;4101142;29;20170;-94
2023/11/04 05:59:34;;;;;;;3.85;0.60;;;8.70;99.90;;;;;;4093443;28;20643;-93
2023/11/04 06:01:37;;;;;;;2.90;1.33;;;8.70;99.90;;;;;;4102266;29;20194;-94
2023/11/04 06:03:38;;;;;;;0.50;0.30;;;8.70;99.90;;;;;;4087211;29;20254;-94
2023/11/04 06:05:39;;;;;;;2.73;0.50;;;8.70;99.90;;;;;;4097189;29;20187;-93
2023/11/04 06:07:40;;;;;;;9.88;1.88;;;8.70;99.90;;;;;;4097784;28;20191;-93
2023/11/04 06:09:43;;;;;;;5.90;0.97;;;8.70;99.90;;;;;;4110172;28;20730;-93
2023/11/04 06:11:44;;;;;;;4.97;0.50;;;8.60;99.90;;;;;;4086072;29;20604;-95
2023/11/04 06:13:44;;;;;;;2.38;0.70;;;8.70;99.90;;;;;;4101734;29;20311;-93
2023/11/04 06:15:46;;;;;;;1.33;0.60;;;8.70;99.90;;;;;;4101345;29;20624;-93
2023/11/04 06:17:47;;;;;;;3.03;0.60;;;8.70;99.90;;;;;;4085018;29;20178;-94
2023/11/04 06:19:47;;;;;;;1.80;0.50;;;8.70;99.90;;;;;;4087751;29;20239;-94
2023/11/04 06:21:48;;;;;;;2.58;0.52;;;8.70;99.90;;;;;;4102808;28;20181;-94
2023/11/04 06:23:49;;;;;;;5.67;1.17;;;8.70;99.90;;;;;;4100898;29;20187;-94
2023/11/04 06:25:50;;;;;;;2.83;0.80;;;8.70;99.90;;;;;;4084829;29;20553;-94
2023/11/04 06:27:51;;;;;;;0.93;0.43;;;8.60;99.90;;;;;;4100852;29;20189;-94
2023/11/04 06:29:55;;;;;;;2.72;0.65;;;8.50;99.90;;;;;;4101298;28;20207;-94
2023/11/04 06:31:58;;;;;;;1.60;0.57;;;8.50;99.90;;;;;;4100965;29;20194;-95
2023/11/04 06:33:59;;;;;;;5.38;1.65;;;8.50;99.90;;;;;;4100200;29;20197;-94
2023/11/04 06:36:00;;;;;;;1.65;0.70;;;8.50;99.90;;;;;;4084506;29;20183;-95
2023/11/04 06:38:01;;;;;;;13.02;0.60;;;8.60;99.90;;;;;;4085397;29;20183;-95
2023/11/04 06:40:05;;;;;;;1.45;0.57;;;8.70;99.90;;;;;;4084558;29;20500;-95
2023/11/04 06:42:06;;;;;;;1.13;0.50;;;8.70;99.90;;;;;;4085418;29;20215;-94
2023/11/04 06:44:07;;;;;;;5.67;0.83;;;8.70;99.90;;;;;;4085271;29;20242;-93
2023/11/04 06:46:08;;;;;;;9.82;0.73;;;8.80;99.90;;;;;;4085027;29;20202;-93
2023/11/04 06:48:09;;;;;;;14.57;1.60;;;8.80;99.90;;;;;;4101958;29;20223;-93
2023/11/04 06:50:10;;;;;;;4.72;0.93;;;8.90;99.90;;;;;;4085296;29;20289;-93
2023/11/04 06:52:11;;;;;;;0.73;0.30;;;9.00;99.90;;;;;;4100427;29;20564;-93
2023/11/04 06:54:12;;;;;;;0.65;0.40;;;9.00;99.90;;;;;;4085412;29;20182;-96
2023/11/04 06:56:13;;;;;;;3.63;0.95;;;9.00;99.90;;;;;;4102065;29;20191;-94
2023/11/04 06:58:14;;;;;;;4.03;0.65;;;9.10;99.90;;;;;;4086903;29;20207;-95
2023/11/04 07:00:15;;;;;;;2.08;0.55;;;9.10;99.90;;;;;;4100455;28;20237;-93
2023/11/04 07:02:16;;;;;;;0.73;0.47;;;9.10;99.90;;;;;;4086480;29;20250;-94
2023/11/04 07:04:17;;;;;;;3.67;1.10;;;9.20;99.90;;;;;;4101901;29;20191;-92
2023/11/04 07:06:20;;;;;;;1.63;0.88;;;9.40;99.90;;;;;;4086443;29;20544;-93
2023/11/04 07:08:21;;;;;;;3.10;0.63;;;9.50;99.90;;;;;;4102105;28;20281;-93
2023/11/04 07:10:24;;;;;;;6.38;1.23;;;9.60;99.90;;;;;;4084375;29;20621;-93
2023/11/04 07:12:28;;;;;;;2.33;1.35;;;9.70;99.90;;;;;;4085754;29;20231;-93
2023/11/04 07:14:31;;;;;;;6.55;1.27;;;9.80;99.90;;;;;;4085751;29;20317;-93
2023/11/04 07:16:32;;;;;;;5.43;0.75;;;9.70;99.90;;;;;;4086393;29;20192;-94
2023/11/04 07:18:33;;;;;;;1.27;0.80;;;9.50;99.90;;;;;;4085868;29;20537;-94
2023/11/04 07:20:34;;;;;;;1.77;0.63;;;9.30;99.90;;;;;;4100538;28;20385;-93
2023/11/04 07:22:35;;;;;;;4.32;1.33;;;9.40;99.90;;;;;;4087638;29;20188;-92
2023/11/04 07:24:36;;;;;;;4.57;0.63;;;9.50;99.90;;;;;;4085998;29;20735;-92
2023/11/04 07:26:37;;;;;;;2.85;0.70;;;9.50;99.90;;;;;;4101283;28;20183;-94
2023/11/04 07:28:38;;;;;;;1.75;0.93;;;9.50;99.90;;;;;;4086672;29;20188;-93
2023/11/04 07:30:39;;;;;;;5.03;1.25;;;9.60;99.90;;;;;;4088195;29;20180;-93
2023/11/04 07:32:39;;;;;;;2.60;0.63;;;9.50;99.90;;;;;;4103569;29;20183;-93
2023/11/04 07:34:40;;;;;;;12.57;1.10;;;9.40;99.90;;;;;;4087395;29;20274;-93
2023/11/04 07:36:45;;;;;;;3.63;0.73;;;9.50;99.90;;;;;;4102979;29;20183;-93
2023/11/04 07:38:46;;;;;;;3.40;0.70;;;9.70;99.90;;;;;;4088413;29;20182;-93
2023/11/04 07:40:47;;;;;;;0.88;0.55;;;9.80;99.90;;;;;;4104746;29;20231;-92
2023/11/04 07:42:47;;;;;;;3.83;0.77;;;9.80;99.90;;;;;;4103632;29;20187;-93
2023/11/04 07:44:48;;;;;;;3.90;0.73;;;9.70;99.90;;;;;;4087875;29;20679;-93
2023/11/04 07:46:49;;;;;;;4.18;0.77;;;9.80;99.90;;;;;;4105227;29;20217;-93
2023/11/04 07:48:52;;;;;;;3.60;1.05;;;9.90;99.90;;;;;;4088517;29;20202;-94
2023/11/04 07:50:53;;;;;;;2.97;0.60;;;9.90;99.90;;;;;;4104266;29;20223;-94
2023/11/04 07:52:53;;;;;;;1.75;0.73;;;9.90;99.90;;;;;;4088347;29;20633;-92
2023/11/04 07:54:54;;;;;;;1.05;0.50;;;10.00;99.90;;;;;;4104068;28;20243;-93
2023/11/04 07:56:55;;;;;;;4.30;1.00;;;10.20;99.90;;;;;;4104963;29;20473;-93
2023/11/04 07:58:56;;;;;;;3.03;0.95;;;10.20;99.90;;;;;;4105044;28;20202;-94
2023/11/04 08:00:57;;;;;;;2.33;0.70;;;10.20;99.90;;;;;;4088712;29;20219;-92
2023/11/04 08:02:58;;;;;;;4.95;0.90;;;10.20;99.90;;;;;;4088981;29;20175;-95
2023/11/04 08:04:59;;;;;;;1.25;0.73;;;10.30;99.90;;;;;;4088423;29;20672;-93
2023/11/04 08:07:00;;;;;;;3.60;0.30;;;10.20;99.90;;;;;;4087803;29;20224;-93
2023/11/04 08:09:01;;;;;;;5.50;0.40;;;10.20;99.90;;;;;;4089779;29;20211;-93
2023/11/04 08:11:03;;;;;;;1.23;0.63;;;10.30;99.90;;;;;;4092337;29;20198;-92
2023/11/04 08:13:03;;;;;;;1.38;0.65;;;10.30;99.90;;;;;;4105520;29;20179;-96
2023/11/04 08:15:08;;;;;;;1.17;0.60;;;10.20;99.90;;;;;;4089158;29;20194;-93
2023/11/04 08:17:08;;;;;;;0.35;0.25;;;10.20;99.90;;;;;;4105387;29;20211;-92
2023/11/04 08:19:09;;;;;;;2.30;0.57;;;10.30;99.90;;;;;;4106169;28;20191;-93
2023/11/04 08:21:15;;;;;;;3.13;0.20;;;10.30;99.90;;;;;;4088264;29;20187;-92
2023/11/04 08:23:16;;;;;;;4.07;0.22;;;10.30;99.90;;;;;;4103182;29;20246;-95
2023/11/04 08:25:16;;;;;;;5.78;1.05;;;10.20;99.90;;;;;;4087872;29;20198;-92
2023/11/04 08:27:17;;;;;;;0.93;0.35;;;10.10;99.90;;;;;;4088008;29;20180;-92
2023/11/04 08:29:18;;;;;;;4.22;0.20;;;10.10;99.90;;;;;;4106014;29;20215;-91
2023/11/04 08:31:19;;;;;;;0.80;0.40;;;10.10;99.90;;;;;;4104632;29;20667;-95
2023/11/04 08:33:20;;;;;;;1.27;0.15;;;10.00;99.90;;;;;;4104693;29;20191;-93
2023/11/04 08:35:21;;;;;;;5.93;0.65;;;10.10;99.90;;;;;;4090387;29;20262;-93
2023/11/04 08:37:22;;;;;;;2.13;0.63;;;10.20;99.90;;;;;;4103750;29;20198;-92
2023/11/04 08:39:23;;;;;;;4.57;0.55;;;10.20;99.90;;;;;;4092942;29;20195;-91
2023/11/04 08:41:23;;;;;;;1.52;0.47;;;10.10;99.90;;;;;;4090134;29;20187;-94
2023/11/04 08:43:24;;;;;;;0.35;0.20;;;10.10;99.90;;;;;;4087893;29;20207;-93
2023/11/04 08:45:25;;;;;;;5.60;0.38;;;10.10;99.90;;;;;;4087372;29;20575;-92
2023/11/04 08:47:26;;;;;;;1.80;0.38;;;10.00;99.90;;;;;;4087750;29;20196;-96
2023/11/04 08:49:26;;;;;;;0.15;0.10;;;9.90;99.90;;;;;;4104839;28;20218;-93
2023/11/04 08:51:27;;;;;;;4.70;0.63;;;10.00;99.90;;;;;;4105019;29;20187;-93
2023/11/04 08:53:28;;;;;;;1.65;0.43;;;10.00;99.90;;;;;;4089181;29;20187;-94
2023/11/04 08:55:29;;;;;;;1.65;0.17;;;10.10;99.90;;;;;;4087286;29;20203;-93
2023/11/04 08:57:32;;;;;;;0.90;0.30;;;10.10;99.90;;;;;;4086404;29;20541;-94
2023/11/04 08:59:33;;;;;;;4.65;0.77;;;10.20;99.90;;;;;;4088329;29;20274;-94
2023/11/04 09:01:34;;;;;;;2.65;0.55;;;10.10;99.90;;;;;;4087624;29;20203;-94
2023/11/04 09:03:35;;;;;;;1.15;0.45;;;10.00;99.90;;;;;;4088745;29;20274;-95
2023/11/04 09:05:36;;;;;;;0.65;0.30;;;10.00;99.90;;;;;;4103865;28;20187;-92
2023/11/04 09:07:40;;;;;;;1.40;0.40;;;10.20;99.90;;;;;;4105280;28;20242;-93
2023/11/04 09:09:41;;;;;;;0.93;0.25;;;10.30;99.90;;;;;;4090310;29;20222;-93
2023/11/04 09:11:42;;;;;;;0.90;0.40;;;10.30;99.90;;;;;;4104014;28;20191;-94
2023/11/04 09:13:45;;;;;;;2.85;0.30;;;10.10;99.90;;;;;;4103539;29;20262;-95
2023/11/04 09:15:46;;;;;;;1.13;0.60;;;10.20;99.90;;;;;;4088602;29;20274;-93
2023/11/04 09:17:47;;;;;;;3.40;0.52;;;10.20;99.90;;;;;;4102141;29;20179;-93
2023/11/04 09:19:48;;;;;;;0.32;0.22;;;10.10;99.90;;;;;;4103309;28;20237;-92
2023/11/04 09:21:49;;;;;;;2.58;0.10;;;10.10;99.90;;;;;;4101555;29;20183;-94
2023/11/04 09:23:50;;;;;;;4.80;0.73;;;10.10;99.90;;;;;;4086782;29;20649;-93
2023/11/04 09:25:51;;;;;;;2.22;0.52;;;10.00;99.90;;;;;;4087987;29;20191;-93
2023/11/04 09:27:52;;;;;;;0.85;0.50;;;10.10;99.90;;;;;;4088057;28;20179;-92
2023/11/04 09:29:52;;;;;;;2.40;0.47;;;10.30;99.90;;;;;;4089385;29;20592;-94
2023/11/04 09:31:54;;;;;;;4.88;0.40;;;10.40;99.90;;;;;;4088390;29;20184;-95
2023/11/04 09:33:55;;;;;;;2.65;0.10;;;10.20;99.90;;;;;;4088039;29;20212;-94
2023/11/04 09:35:56;;;;;;;2.88;0.25;;;10.20;99.90;;;;;;4086394;29;20194;-95
2023/11/04 09:37:57;;;;;;;3.83;0.10;;;10.10;99.90;;;;;;4102036;28;20241;-92
2023/11/04 09:39:59;;;;;;;1.75;0.25;;;10.10;99.90;;;;;;4101893;28;20230;-93
2023/11/04 09:41:59;;;;;;;1.05;0.20;;;10.10;99.90;;;;;;4086019;29;20191;-93
2023/11/04 09:44:00;;;;;;;0.20;0.15;;;10.10;99.90;;;;;;4090168;29;20561;-93
2023/11/04 09:46:02;;;;;;;2.20;0.40;;;10.10;99.90;;;;;;4086192;28;20188;-94
2023/11/04 09:48:03;;;;;;;2.55;0.63;;;10.00;99.90;;;;;;4102321;28;20706;-93
2023/11/04 09:50:06;;;;;;;4.03;0.90;;;10.00;99.90;;;;;;4087563;29;20247;-93
2023/11/04 09:52:10;;;;;;;4.32;0.22;;;10.00;99.90;;;;;;4087822;29;20250;-92
2023/11/04 09:54:15;;;;;;;3.70;0.88;;;10.00;99.90;;;;;;4102331;28;20190;-93
2023/11/04 09:56:16;;;;;;;1.50;0.32;;;10.00;99.90;;;;;;4085173;29;20645;-94
2023/11/04 09:58:18;;;;;;;1.13;0.30;;;10.10;99.90;;;;;;4104169;29;20241;-94
2023/11/04 10:00:20;;;;;;;2.20;0.10;;;10.10;99.90;;;;;;4103820;29;20228;-93
2023/11/04 10:02:21;;;;;;;1.55;0.47;;;10.10;99.90;;;;;;4086446;29;20171;-93
2023/11/04 10:04:24;;;;;;;0.00;0.00;;;10.10;99.90;;;;;;4090015;29;20250;-95
2023/11/04 10:06:29;;;;;;;1.80;0.55;;;10.20;99.90;;;;;;4089538;28;20274;-95
2023/11/04 10:08:30;;;;;;;6.70;0.80;;;10.20;99.90;;;;;;4089164;29;20187;-93
2023/11/04 10:10:30;;;;;;;0.70;0.50;;;10.20;99.90;;;;;;4088778;29;20203;-94
2023/11/04 10:12:31;;;;;;;1.00;0.20;;;10.20;99.90;;;;;;4087956;29;20179;-93
2023/11/04 10:14:32;;;;;;;5.32;1.15;;;10.20;99.90;;;;;;4086144;29;20652;-93
2023/11/04 10:16:33;;;;;;;7.80;0.80;;;10.20;99.90;;;;;;4102850;29;20175;-92
2023/11/04 10:18:34;;;;;;;1.55;0.20;;;10.30;99.90;;;;;;4087597;29;20192;-93
2023/11/04 10:20:35;;;;;;;2.97;0.13;;;10.40;99.90;;;;;;4086296;29;20227;-93
2023/11/04 10:22:36;;;;;;;2.13;0.13;;;10.20;99.90;;;;;;4087140;29;20183;-95
2023/11/04 10:24:37;;;;;;;0.20;0.10;;;10.20;99.90;;;;;;4089466;29;20188;-93
2023/11/04 10:26:38;;;;;;;0.20;0.20;;;10.10;99.90;;;;;;4104723;29;20210;-93
2023/11/04 10:28:39;;;;;;;4.93;0.38;;;10.10;99.90;;;;;;4088487;29;20188;-92
2023/11/04 10:30:41;;;;;;;1.15;0.32;;;10.10;99.90;;;;;;4103234;28;20194;-93
2023/11/04 10:32:47;;;;;;;0.20;0.10;;;10.20;99.90;;;;;;4104918;29;20198;-93
2023/11/04 10:34:51;;;;;;;0.40;0.08;;;10.20;99.90;;;;;;4103836;28;20714;-94
2023/11/04 10:36:54;;;;;;;0.50;0.25;;;10.20;99.90;;;;;;4087698;29;20270;-92